»·PEaware :: VRD717 KSFO-KLAX

VRD717 :: KSFO-KLAX

FLIGHT INFORMATION

Flight Status: Arrived
Operator:
Virgin America
More flights by this operator :: More flights under this callsign
Pilot: Ty S. (2873)
Aircraft: AIRBUS A321
(A321)
More flights by this aircraft type
Origin: KSFO San Francisco Intl
United States
Destination: KLAX Los Angeles Intl
United States
More flights between these airports :: More routes between these airports
Route: +SSTIK4 EBAYE BURGL IRNMN2
File this flight plan on PilotEdge
Remarks: RMK / SIMBRIEF
Altitude:
(Current/Filed)
33,000ft
Speed:
(Current/Filed)
441kts
Departed: 20-Mar-20 04:16 PM
Arrived: 20-Mar-20 05:23 PM
Distance/Time
Traveled:
293nm/1:07
Distance/Time
To Go:
Arrived

Flight Plot

Page will automatically refresh every two minutes.

Flight plan parsing failed; only flown route is shown


Map Options




Map Legend


Flown Route
Filed Route
Departure Airport
Arrival Airport
Navaid (VOR, NDB)
Fix

Horizontal Profiles

Position Reports

Time Latitude Longitude Heading Altitude Ground
Speed
20-Mar-20 15:11 37.617866 -122.380588 257 22ft 0kts
20-Mar-20 15:12 37.617866 -122.380588 257 22ft 0kts
20-Mar-20 15:13 37.617866 -122.380588 257 22ft 0kts
20-Mar-20 15:14 37.617866 -122.380588 257 22ft 0kts
20-Mar-20 15:15 37.617866 -122.380588 257 22ft 0kts
20-Mar-20 15:16 37.617866 -122.380588 257 22ft 0kts
20-Mar-20 15:17 37.617866 -122.380588 257 22ft 0kts
20-Mar-20 15:18 37.617866 -122.380588 257 22ft 0kts
20-Mar-20 15:19 37.617866 -122.380588 257 22ft 0kts
20-Mar-20 15:20 37.617866 -122.380588 257 22ft 0kts
20-Mar-20 15:21 37.617866 -122.380588 257 22ft 0kts
20-Mar-20 15:22 37.617866 -122.380588 257 22ft 0kts
20-Mar-20 15:23 37.617866 -122.380588 257 22ft 0kts
20-Mar-20 15:24 37.617866 -122.380588 257 22ft 0kts
20-Mar-20 15:25 37.617866 -122.380588 257 22ft 0kts
20-Mar-20 15:26 37.617866 -122.380588 257 22ft 0kts
20-Mar-20 15:27 37.617866 -122.380588 257 22ft 0kts
20-Mar-20 15:28 37.617866 -122.380588 257 22ft 0kts
20-Mar-20 15:29 37.617866 -122.380588 257 22ft 0kts
20-Mar-20 15:30 37.617866 -122.380588 257 22ft 0kts
20-Mar-20 15:31 37.617866 -122.380588 257 22ft 0kts
20-Mar-20 15:32 37.617866 -122.380588 257 22ft 0kts
20-Mar-20 15:33 37.617866 -122.380588 257 22ft 0kts
20-Mar-20 15:34 37.617866 -122.380588 257 22ft 0kts
20-Mar-20 15:35 37.617866 -122.380588 257 22ft 0kts
20-Mar-20 15:36 37.617866 -122.380588 257 22ft 0kts
20-Mar-20 15:37 37.617866 -122.380588 257 22ft 0kts
20-Mar-20 15:38 37.617866 -122.380588 257 22ft 0kts
20-Mar-20 15:39 37.617866 -122.380588 257 22ft 0kts
20-Mar-20 15:40 37.617866 -122.380588 257 22ft 0kts
20-Mar-20 15:41 37.617866 -122.380588 257 22ft 0kts
20-Mar-20 15:42 37.617866 -122.380588 257 22ft 0kts
20-Mar-20 15:43 37.617866 -122.380588 257 22ft 0kts
20-Mar-20 15:44 37.617866 -122.380588 257 22ft 0kts
20-Mar-20 15:45 37.617866 -122.380588 257 22ft 0kts
20-Mar-20 15:46 37.617866 -122.380588 257 22ft 0kts
20-Mar-20 15:47 37.617866 -122.380588 257 22ft 0kts
20-Mar-20 15:48 37.617866 -122.380588 257 22ft 0kts
20-Mar-20 15:49 37.617866 -122.380588 257 22ft 0kts
20-Mar-20 15:50 37.617866 -122.380588 257 22ft 0kts
20-Mar-20 15:51 37.617866 -122.380588 257 22ft 0kts
20-Mar-20 15:52 37.617866 -122.380588 257 22ft 0kts
20-Mar-20 15:53 37.617866 -122.380588 257 22ft 0kts
20-Mar-20 15:54 37.617866 -122.380588 257 22ft 0kts
20-Mar-20 15:55 37.617866 -122.380588 257 22ft 0kts
20-Mar-20 15:56 37.617866 -122.380588 257 22ft 0kts
20-Mar-20 15:57 37.617866 -122.380588 257 22ft 0kts
20-Mar-20 15:58 37.617866 -122.380588 257 22ft 0kts
20-Mar-20 15:59 37.617866 -122.380588 257 22ft 0kts
20-Mar-20 16:00 37.617866 -122.380588 257 22ft 0kts
20-Mar-20 16:01 37.617866 -122.380588 257 22ft 0kts
20-Mar-20 16:02 37.617947 -122.380134 257 22ft 2kts
20-Mar-20 16:03 37.618189 -122.379634 161 22ft 1kts
20-Mar-20 16:04 37.618264 -122.379683 154 22ft 0kts
20-Mar-20 16:05 37.618264 -122.379683 154 22ft 0kts
20-Mar-20 16:06 37.616679 -122.379632 201 22ft 11kts
20-Mar-20 16:07 37.612664 -122.382268 207 22ft 19kts
20-Mar-20 16:08 37.609196 -122.384769 186 22ft 3kts
20-Mar-20 16:09 37.608981 -122.384722 155 22ft 2kts
20-Mar-20 16:10 37.608504 -122.383961 118 22ft 0kts
20-Mar-20 16:11 37.608504 -122.383961 118 22ft 0kts
20-Mar-20 16:12 37.608457 -122.383850 118 22ft 4kts
20-Mar-20 16:13 37.608563 -122.382541 30 22ft 0kts
20-Mar-20 16:14 37.608563 -122.382541 30 22ft 0kts
20-Mar-20 16:15 37.632434 -122.366632 27 547ft 187kts
20-Mar-20 16:16 37.683082 -122.361993 348 2801ft 207kts
20-Mar-20 16:17 37.687108 -122.423656 203 4166ft 257kts
20-Mar-20 16:18 37.615961 -122.441874 192 7046ft 267kts
20-Mar-20 16:19 37.542235 -122.460878 191 9699ft 276kts
20-Mar-20 16:20 37.469332 -122.446873 138 10425ft 291kts
20-Mar-20 16:21 37.408031 -122.363397 133 11433ft 354kts
20-Mar-20 16:22 37.339931 -122.270499 133 13734ft 369kts
20-Mar-20 16:23 37.268707 -122.174040 134 15805ft 383kts
20-Mar-20 16:24 37.194436 -122.073883 134 17622ft 397kts
20-Mar-20 16:25 37.117401 -121.970277 134 19278ft 412kts
20-Mar-20 16:26 37.038025 -121.863823 134 20932ft 422kts
20-Mar-20 16:27 36.956610 -121.754995 135 22505ft 429kts
20-Mar-20 16:28 36.875831 -121.647586 135 23764ft 438kts
20-Mar-20 16:29 36.790329 -121.534621 135 24871ft 450kts
20-Mar-20 16:30 36.702962 -121.419092 135 25929ft 460kts
20-Mar-20 16:31 36.614083 -121.301713 135 27099ft 463kts
20-Mar-20 16:32 36.525115 -121.184653 136 28137ft 466kts
20-Mar-20 16:33 36.434996 -121.066555 135 28895ft 470kts
20-Mar-20 16:34 36.348769 -120.942936 135 29669ft 472kts
20-Mar-20 16:35 36.262452 -120.819132 135 30399ft 472kts
20-Mar-20 16:36 36.175892 -120.695554 135 31058ft 473kts
20-Mar-20 16:37 36.089825 -120.573104 135 31878ft 470kts
20-Mar-20 16:38 36.004104 -120.451672 135 32741ft 467kts
20-Mar-20 16:39 35.917969 -120.330252 137 33143ft 467kts
20-Mar-20 16:40 35.823829 -120.227627 150 33160ft 459kts
20-Mar-20 16:41 35.715491 -120.144900 153 33162ft 458kts
20-Mar-20 16:42 35.606592 -120.062785 153 33168ft 458kts
20-Mar-20 16:43 35.498078 -119.980967 153 33164ft 458kts
20-Mar-20 16:44 35.389503 -119.899495 153 33165ft 457kts
20-Mar-20 16:45 35.281504 -119.816747 149 32666ft 456kts
20-Mar-20 16:46 35.181262 -119.723549 147 31671ft 449kts
20-Mar-20 16:47 35.081354 -119.630379 147 30274ft 449kts
20-Mar-20 16:48 34.981166 -119.537277 147 27310ft 453kts
20-Mar-20 16:49 34.887297 -119.450749 149 25649ft 434kts
20-Mar-20 16:51 34.791495 -119.365723 149 23953ft 417kts
20-Mar-20 16:52 34.700325 -119.284845 149 22384ft 387kts
20-Mar-20 16:53 34.616609 -119.212136 149 20807ft 357kts
20-Mar-20 16:54 34.537949 -119.143909 147 19301ft 341kts
20-Mar-20 16:55 34.462757 -119.077263 147 17813ft 329kts
20-Mar-20 16:56 34.389770 -119.013616 147 16383ft 319kts
20-Mar-20 16:57 34.318738 -118.951306 145 14986ft 312kts
20-Mar-20 16:58 34.250081 -118.888838 144 13588ft 307kts
20-Mar-20 16:59 34.183285 -118.827419 143 12672ft 284kts
20-Mar-20 17:00 34.124653 -118.766819 138 11868ft 274kts
20-Mar-20 17:01 34.068660 -118.705950 138 10764ft 266kts
20-Mar-20 17:02 34.026465 -118.636847 98 9849ft 264kts
20-Mar-20 17:03 34.018894 -118.545051 97 8790ft 283kts
20-Mar-20 17:04 34.006778 -118.453380 118 7997ft 259kts
20-Mar-20 17:05 33.972517 -118.382519 121 7236ft 235kts
20-Mar-20 17:06 33.939507 -118.316260 121 6078ft 233kts
20-Mar-20 17:15 33.898859 -118.155411 82 5313ft 232kts
20-Mar-20 17:15 33.906498 -118.091683 82 4387ft 228kts
20-Mar-20 17:16 33.946286 -118.052924 330 3997ft 221kts
20-Mar-20 17:17 33.964492 -118.119484 263 3999ft 218kts
20-Mar-20 17:18 33.956795 -118.192581 263 3241ft 218kts
20-Mar-20 17:19 33.949299 -118.264384 263 2195ft 201kts
20-Mar-20 17:20 33.943280 -118.323153 262 910ft 155kts
20-Mar-20 17:21 33.938445 -118.371945 263 323ft 142kts
20-Mar-20 17:22 33.935717 -118.405526 286 136ft 22kts
20-Mar-20 17:23 33.936589 -118.408924 345 136ft 15kts
20-Mar-20 17:24 33.938644 -118.408734 67 136ft 10kts
20-Mar-20 17:25 33.939295 -118.402932 83 136ft 21kts
20-Mar-20 17:26 33.940821 -118.398603 306 136ft 9kts
20-Mar-20 17:27 33.941030 -118.398940 306 136ft 0kts
20-Mar-20 17:28 33.941030 -118.398940 306 136ft 0kts
20-Mar-20 17:29 33.941030 -118.398940 306 136ft 0kts
20-Mar-20 17:30 33.941030 -118.398940 306 136ft 0kts
20-Mar-20 17:31 33.941030 -118.398940 306 136ft 0kts
20-Mar-20 17:32 33.941030 -118.398940 306 136ft 0kts
20-Mar-20 17:33 33.941030 -118.398940 306 136ft 0kts
20-Mar-20 17:34 33.941030 -118.398940 306 136ft 0kts
20-Mar-20 17:35 33.941030 -118.398940 306 136ft 0kts

Navigation Log

Ident Type
Flight plan parsing failed, navigation log unavailable